sensor_id;sensor_type;location;lat;lon;timestamp;P1;P2;P0
61760;PMS5003;47664;51.660;-0.100;2023-01-01T00:00:29;9;6;
61760;PMS5003;47664;51.660;-0.100;2023-01-01T00:03:03;9;6;
61760;PMS5003;47664;51.660;-0.100;2023-01-01T00:05:36;29;26;
61760;PMS5003;47664;51.660;-0.100;2023-01-01T00:08:09;37;27;
61760;PMS5003;47664;51.660;-0.100;2023-01-01T00:10:41;30;25;
61760;PMS5003;47664;51.660;-0.100;2023-01-01T00:13:13;27;24;
61760;PMS5003;47664;51.660;-0.100;2023-01-01T00:15:45;31;24;
61760;PMS5003;47664;51.660;-0.100;2023-01-01T00:18:18;28;22;
61760;PMS5003;47664;51.660;-0.100;2023-01-01T00:20:50;26;22;
61760;PMS5003;47664;51.660;-0.100;2023-01-01T00:23:26;35;26;
61760;PMS5003;47664;51.660;-0.100;2023-01-01T00:25:59;37;31;
61760;PMS5003;47664;51.660;-0.100;2023-01-01T00:28:34;30;25;
61760;PMS5003;47664;51.660;-0.100;2023-01-01T00:31:06;25;22;
61760;PMS5003;47664;51.660;-0.100;2023-01-01T00:33:40;32;29;
61760;PMS5003;47664;51.660;-0.100;2023-01-01T00:36:16;27;23;
61760;PMS5003;47664;51.660;-0.100;2023-01-01T00:38:49;21;19;
61760;PMS5003;47664;51.660;-0.100;2023-01-01T00:41:22;23;16;
61760;PMS5003;47664;51.660;-0.100;2023-01-01T00:43:54;24;19;
61760;PMS5003;47664;51.660;-0.100;2023-01-01T00:46:27;33;24;
61760;PMS5003;47664;51.660;-0.100;2023-01-01T00:48:59;28;27;
61760;PMS5003;47664;51.660;-0.100;2023-01-01T00:51:31;25;23;
61760;PMS5003;47664;51.660;-0.100;2023-01-01T00:54:04;27;23;
61760;PMS5003;47664;51.660;-0.100;2023-01-01T00:56:36;27;23;
61760;PMS5003;47664;51.660;-0.100;2023-01-01T00:59:08;26;20;
61760;PMS5003;47664;51.660;-0.100;2023-01-01T01:01:46;22;19;
61760;PMS5003;47664;51.660;-0.100;2023-01-01T01:04:13;18;15;
61760;PMS5003;47664;51.660;-0.100;2023-01-01T01:06:46;18;18;
61760;PMS5003;47664;51.660;-0.100;2023-01-01T01:09:17;9;9;
61760;PMS5003;47664;51.660;-0.100;2023-01-01T01:11:49;17;11;
61760;PMS5003;47664;51.660;-0.100;2023-01-01T01:14:21;7;6;
61760;PMS5003;47664;51.660;-0.100;2023-01-01T01:16:53;10;5;
61760;PMS5003;47664;51.660;-0.100;2023-01-01T01:19:26;3;3;
61760;PMS5003;47664;51.660;-0.100;2023-01-01T01:21:58;6;3;
61760;PMS5003;47664;51.660;-0.100;2023-01-01T01:24:31;7;4;
61760;PMS5003;47664;51.660;-0.100;2023-01-01T01:27:03;4;4;
61760;PMS5003;47664;51.660;-0.100;2023-01-01T01:29:35;5;4;
61760;PMS5003;47664;51.660;-0.100;2023-01-01T01:32:08;9;4;
61760;PMS5003;47664;51.660;-0.100;2023-01-01T01:34:40;11;5;
61760;PMS5003;47664;51.660;-0.100;2023-01-01T01:37:12;4;3;
61760;PMS5003;47664;51.660;-0.100;2023-01-01T01:39:45;6;6;
61760;PMS5003;47664;51.660;-0.100;2023-01-01T01:42:17;2;2;
61760;PMS5003;47664;51.660;-0.100;2023-01-01T01:44:50;3;2;
61760;PMS5003;47664;51.660;-0.100;2023-01-01T01:47:25;5;3;
61760;PMS5003;47664;51.660;-0.100;2023-01-01T01:49:58;2;1;
61760;PMS5003;47664;51.660;-0.100;2023-01-01T01:52:34;2;2;
61760;PMS5003;47664;51.660;-0.100;2023-01-01T01:55:12;4;1;
61760;PMS5003;47664;51.660;-0.100;2023-01-01T01:57:45;7;4;
61760;PMS5003;47664;51.660;-0.100;2023-01-01T02:00:18;2;1;
61760;PMS5003;47664;51.660;-0.100;2023-01-01T02:02:51;6;1;
61760;PMS5003;47664;51.660;-0.100;2023-01-01T02:05:27;2;2;
61760;PMS5003;47664;51.660;-0.100;2023-01-01T02:08:00;8;6;
61760;PMS5003;47664;51.660;-0.100;2023-01-01T02:10:34;2;1;
61760;PMS5003;47664;51.660;-0.100;2023-01-01T02:13:06;3;2;
61760;PMS5003;47664;51.660;-0.100;2023-01-01T02:15:40;1;1;
61760;PMS5003;47664;51.660;-0.100;2023-01-01T02:18:15;1;1;
61760;PMS5003;47664;51.660;-0.100;2023-01-01T02:20:47;6;3;
61760;PMS5003;47664;51.660;-0.100;2023-01-01T02:23:23;6;2;
61760;PMS5003;47664;51.660;-0.100;2023-01-01T02:26:05;2;2;
61760;PMS5003;47664;51.660;-0.100;2023-01-01T02:28:47;4;3;
61760;PMS5003;47664;51.660;-0.100;2023-01-01T02:31:23;5;5;
61760;PMS5003;47664;51.660;-0.100;2023-01-01T02:34:02;4;1;
61760;PMS5003;47664;51.660;-0.100;2023-01-01T02:36:38;3;3;
61760;PMS5003;47664;51.660;-0.100;2023-01-01T02:39:10;10;0;
61760;PMS5003;47664;51.660;-0.100;2023-01-01T02:41:47;7;3;
61760;PMS5003;47664;51.660;-0.100;2023-01-01T02:44:23;2;1;
61760;PMS5003;47664;51.660;-0.100;2023-01-01T02:47:09;3;2;
61760;PMS5003;47664;51.660;-0.100;2023-01-01T02:49:43;6;1;
61760;PMS5003;47664;51.660;-0.100;2023-01-01T02:52:19;6;3;
61760;PMS5003;47664;51.660;-0.100;2023-01-01T02:55:03;1;1;
61760;PMS5003;47664;51.660;-0.100;2023-01-01T02:57:40;0;0;
61760;PMS5003;47664;51.660;-0.100;2023-01-01T03:00:12;3;1;
61760;PMS5003;47664;51.660;-0.100;2023-01-01T03:02:50;2;2;
61760;PMS5003;47664;51.660;-0.100;2023-01-01T03:05:33;3;2;
61760;PMS5003;47664;51.660;-0.100;2023-01-01T03:08:09;6;1;
61760;PMS5003;47664;51.660;-0.100;2023-01-01T03:10:48;0;0;
61760;PMS5003;47664;51.660;-0.100;2023-01-01T03:13:29;3;2;
61760;PMS5003;47664;51.660;-0.100;2023-01-01T03:16:03;5;0;
61760;PMS5003;47664;51.660;-0.100;2023-01-01T03:18:40;8;4;
61760;PMS5003;47664;51.660;-0.100;2023-01-01T03:21:13;5;1;
61760;PMS5003;47664;51.660;-0.100;2023-01-01T03:23:48;2;1;
61760;PMS5003;47664;51.660;-0.100;2023-01-01T03:26:18;0;0;
61760;PMS5003;47664;51.660;-0.100;2023-01-01T03:28:53;5;1;
61760;PMS5003;47664;51.660;-0.100;2023-01-01T03:31:27;8;7;
61760;PMS5003;47664;51.660;-0.100;2023-01-01T03:34:01;5;2;
61760;PMS5003;47664;51.660;-0.100;2023-01-01T03:36:37;2;2;
61760;PMS5003;47664;51.660;-0.100;2023-01-01T03:39:15;6;1;
61760;PMS5003;47664;51.660;-0.100;2023-01-01T03:41:46;5;3;
61760;PMS5003;47664;51.660;-0.100;2023-01-01T03:44:20;5;2;
61760;PMS5003;47664;51.660;-0.100;2023-01-01T03:46:51;4;1;
61760;PMS5003;47664;51.660;-0.100;2023-01-01T03:49:24;5;2;
61760;PMS5003;47664;51.660;-0.100;2023-01-01T03:52:00;5;2;
61760;PMS5003;47664;51.660;-0.100;2023-01-01T03:54:37;4;2;
61760;PMS5003;47664;51.660;-0.100;2023-01-01T03:57:12;5;2;
61760;PMS5003;47664;51.660;-0.100;2023-01-01T03:59:52;6;5;
61760;PMS5003;47664;51.660;-0.100;2023-01-01T04:02:29;2;2;
61760;PMS5003;47664;51.660;-0.100;2023-01-01T04:05:02;9;7;
61760;PMS5003;47664;51.660;-0.100;2023-01-01T04:07:36;7;3;
61760;PMS5003;47664;51.660;-0.100;2023-01-01T04:10:09;3;1;
61760;PMS5003;47664;51.660;-0.100;2023-01-01T04:12:42;13;10;
61760;PMS5003;47664;51.660;-0.100;2023-01-01T04:15:17;1;1;
61760;PMS5003;47664;51.660;-0.100;2023-01-01T04:17:50;5;4;
61760;PMS5003;47664;51.660;-0.100;2023-01-01T04:20:23;4;1;
61760;PMS5003;47664;51.660;-0.100;2023-01-01T04:22:56;8;3;
61760;PMS5003;47664;51.660;-0.100;2023-01-01T04:25:28;5;1;
61760;PMS5003;47664;51.660;-0.100;2023-01-01T04:28:00;2;2;
61760;PMS5003;47664;51.660;-0.100;2023-01-01T04:30:33;3;3;
61760;PMS5003;47664;51.660;-0.100;2023-01-01T04:33:05;1;1;
61760;PMS5003;47664;51.660;-0.100;2023-01-01T04:35:37;2;1;
61760;PMS5003;47664;51.660;-0.100;2023-01-01T04:38:11;5;1;
61760;PMS5003;47664;51.660;-0.100;2023-01-01T04:40:56;3;1;
61760;PMS5003;47664;51.660;-0.100;2023-01-01T04:43:23;3;3;
61760;PMS5003;47664;51.660;-0.100;2023-01-01T04:45:56;5;2;
61760;PMS5003;47664;51.660;-0.100;2023-01-01T04:48:29;2;1;
61760;PMS5003;47664;51.660;-0.100;2023-01-01T04:51:03;7;2;
61760;PMS5003;47664;51.660;-0.100;2023-01-01T04:53:36;3;2;
61760;PMS5003;47664;51.660;-0.100;2023-01-01T04:56:10;4;2;
61760;PMS5003;47664;51.660;-0.100;2023-01-01T04:58:45;8;4;
61760;PMS5003;47664;51.660;-0.100;2023-01-01T05:01:19;4;0;
61760;PMS5003;47664;51.660;-0.100;2023-01-01T05:03:53;4;1;
61760;PMS5003;47664;51.660;-0.100;2023-01-01T05:06:26;4;2;
61760;PMS5003;47664;51.660;-0.100;2023-01-01T05:08:58;4;2;
61760;PMS5003;47664;51.660;-0.100;2023-01-01T05:11:31;3;2;
61760;PMS5003;47664;51.660;-0.100;2023-01-01T05:14:04;3;0;
61760;PMS5003;47664;51.660;-0.100;2023-01-01T05:16:36;4;1;
61760;PMS5003;47664;51.660;-0.100;2023-01-01T05:19:09;2;2;
61760;PMS5003;47664;51.660;-0.100;2023-01-01T05:21:41;4;0;
61760;PMS5003;47664;51.660;-0.100;2023-01-01T05:24:13;4;2;
61760;PMS5003;47664;51.660;-0.100;2023-01-01T05:26:45;6;1;
61760;PMS5003;47664;51.660;-0.100;2023-01-01T05:29:17;5;2;
61760;PMS5003;47664;51.660;-0.100;2023-01-01T05:31:49;12;7;
61760;PMS5003;47664;51.660;-0.100;2023-01-01T05:34:21;3;2;
61760;PMS5003;47664;51.660;-0.100;2023-01-01T05:36:53;5;2;
61760;PMS5003;47664;51.660;-0.100;2023-01-01T05:39:25;7;1;
61760;PMS5003;47664;51.660;-0.100;2023-01-01T05:41:57;1;1;
61760;PMS5003;47664;51.660;-0.100;2023-01-01T05:44:29;7;3;
61760;PMS5003;47664;51.660;-0.100;2023-01-01T05:47:01;6;3;
61760;PMS5003;47664;51.660;-0.100;2023-01-01T05:49:33;5;2;
61760;PMS5003;47664;51.660;-0.100;2023-01-01T05:52:05;4;2;
61760;PMS5003;47664;51.660;-0.100;2023-01-01T05:54:37;2;2;
61760;PMS5003;47664;51.660;-0.100;2023-01-01T05:57:09;2;2;
61760;PMS5003;47664;51.660;-0.100;2023-01-01T05:59:41;3;2;
61760;PMS5003;47664;51.660;-0.100;2023-01-01T06:02:13;7;4;
61760;PMS5003;47664;51.660;-0.100;2023-01-01T06:04:46;5;1;
61760;PMS5003;47664;51.660;-0.100;2023-01-01T06:07:19;6;1;
61760;PMS5003;47664;51.660;-0.100;2023-01-01T06:09:51;6;2;
61760;PMS5003;47664;51.660;-0.100;2023-01-01T06:12:23;2;1;
61760;PMS5003;47664;51.660;-0.100;2023-01-01T06:14:54;6;4;
61760;PMS5003;47664;51.660;-0.100;2023-01-01T06:17:27;8;6;
61760;PMS5003;47664;51.660;-0.100;2023-01-01T06:20:00;7;4;
61760;PMS5003;47664;51.660;-0.100;2023-01-01T06:22:34;6;3;
61760;PMS5003;47664;51.660;-0.100;2023-01-01T06:25:07;4;4;
61760;PMS5003;47664;51.660;-0.100;2023-01-01T06:27:39;8;4;
61760;PMS5003;47664;51.660;-0.100;2023-01-01T06:30:12;7;2;
61760;PMS5003;47664;51.660;-0.100;2023-01-01T06:32:44;9;2;
61760;PMS5003;47664;51.660;-0.100;2023-01-01T06:35:16;8;2;
61760;PMS5003;47664;51.660;-0.100;2023-01-01T06:37:48;5;2;
61760;PMS5003;47664;51.660;-0.100;2023-01-01T06:40:20;6;2;
61760;PMS5003;47664;51.660;-0.100;2023-01-01T06:42:52;7;2;
61760;PMS5003;47664;51.660;-0.100;2023-01-01T06:45:24;6;3;
61760;PMS5003;47664;51.660;-0.100;2023-01-01T06:47:56;5;2;
61760;PMS5003;47664;51.660;-0.100;2023-01-01T06:50:28;1;1;
61760;PMS5003;47664;51.660;-0.100;2023-01-01T06:53:01;2;2;
61760;PMS5003;47664;51.660;-0.100;2023-01-01T06:55:33;9;3;
61760;PMS5003;47664;51.660;-0.100;2023-01-01T06:58:05;10;4;
61760;PMS5003;47664;51.660;-0.100;2023-01-01T07:00:37;5;3;
61760;PMS5003;47664;51.660;-0.100;2023-01-01T07:03:10;4;1;
61760;PMS5003;47664;51.660;-0.100;2023-01-01T07:05:42;6;3;
61760;PMS5003;47664;51.660;-0.100;2023-01-01T07:08:15;10;4;
61760;PMS5003;47664;51.660;-0.100;2023-01-01T07:10:47;5;3;
61760;PMS5003;47664;51.660;-0.100;2023-01-01T07:13:20;5;2;
61760;PMS5003;47664;51.660;-0.100;2023-01-01T07:15:53;7;3;
61760;PMS5003;47664;51.660;-0.100;2023-01-01T07:18:26;6;3;
61760;PMS5003;47664;51.660;-0.100;2023-01-01T07:20:59;3;2;
61760;PMS5003;47664;51.660;-0.100;2023-01-01T07:23:33;7;2;
61760;PMS5003;47664;51.660;-0.100;2023-01-01T07:26:06;8;3;
61760;PMS5003;47664;51.660;-0.100;2023-01-01T07:28:39;3;0;
61760;PMS5003;47664;51.660;-0.100;2023-01-01T07:31:16;6;2;
61760;PMS5003;47664;51.660;-0.100;2023-01-01T07:33:48;11;4;
61760;PMS5003;47664;51.660;-0.100;2023-01-01T07:36:21;7;2;
61760;PMS5003;47664;51.660;-0.100;2023-01-01T07:38:53;8;4;
61760;PMS5003;47664;51.660;-0.100;2023-01-01T07:41:25;7;4;
61760;PMS5003;47664;51.660;-0.100;2023-01-01T07:43:57;4;0;
61760;PMS5003;47664;51.660;-0.100;2023-01-01T07:46:29;6;4;
61760;PMS5003;47664;51.660;-0.100;2023-01-01T07:49:02;4;4;
61760;PMS5003;47664;51.660;-0.100;2023-01-01T07:51:34;7;3;
61760;PMS5003;47664;51.660;-0.100;2023-01-01T07:54:06;5;2;
61760;PMS5003;47664;51.660;-0.100;2023-01-01T07:56:38;10;4;
61760;PMS5003;47664;51.660;-0.100;2023-01-01T07:59:11;3;2;
61760;PMS5003;47664;51.660;-0.100;2023-01-01T08:01:43;11;5;
61760;PMS5003;47664;51.660;-0.100;2023-01-01T08:04:15;3;3;
61760;PMS5003;47664;51.660;-0.100;2023-01-01T08:06:48;7;3;
61760;PMS5003;47664;51.660;-0.100;2023-01-01T08:09:20;9;4;
61760;PMS5003;47664;51.660;-0.100;2023-01-01T08:11:52;7;2;
61760;PMS5003;47664;51.660;-0.100;2023-01-01T08:14:24;8;3;
61760;PMS5003;47664;51.660;-0.100;2023-01-01T08:16:56;7;4;
61760;PMS5003;47664;51.660;-0.100;2023-01-01T08:19:28;17;10;
61760;PMS5003;47664;51.660;-0.100;2023-01-01T08:22:00;7;5;
61760;PMS5003;47664;51.660;-0.100;2023-01-01T08:24:32;6;2;
61760;PMS5003;47664;51.660;-0.100;2023-01-01T08:27:04;6;2;
61760;PMS5003;47664;51.660;-0.100;2023-01-01T08:29:39;9;1;
61760;PMS5003;47664;51.660;-0.100;2023-01-01T08:32:11;10;5;
61760;PMS5003;47664;51.660;-0.100;2023-01-01T08:34:43;7;5;
61760;PMS5003;47664;51.660;-0.100;2023-01-01T08:37:15;5;3;
61760;PMS5003;47664;51.660;-0.100;2023-01-01T08:39:49;9;5;
61760;PMS5003;47664;51.660;-0.100;2023-01-01T08:42:21;6;4;
61760;PMS5003;47664;51.660;-0.100;2023-01-01T08:44:53;10;5;
61760;PMS5003;47664;51.660;-0.100;2023-01-01T08:47:25;3;1;
61760;PMS5003;47664;51.660;-0.100;2023-01-01T08:49:57;2;1;
61760;PMS5003;47664;51.660;-0.100;2023-01-01T08:52:31;2;0;
61760;PMS5003;47664;51.660;-0.100;2023-01-01T08:55:03;0;0;
61760;PMS5003;47664;51.660;-0.100;2023-01-01T08:57:36;2;1;
61760;PMS5003;47664;51.660;-0.100;2023-01-01T09:00:09;2;1;
61760;PMS5003;47664;51.660;-0.100;2023-01-01T09:02:42;11;5;
61760;PMS5003;47664;51.660;-0.100;2023-01-01T09:05:15;0;0;
61760;PMS5003;47664;51.660;-0.100;2023-01-01T09:07:47;2;1;
61760;PMS5003;47664;51.660;-0.100;2023-01-01T09:10:19;3;1;
61760;PMS5003;47664;51.660;-0.100;2023-01-01T09:12:51;4;1;
61760;PMS5003;47664;51.660;-0.100;2023-01-01T09:15:23;0;0;
61760;PMS5003;47664;51.660;-0.100;2023-01-01T09:17:55;0;0;
61760;PMS5003;47664;51.660;-0.100;2023-01-01T09:20:27;1;1;
61760;PMS5003;47664;51.660;-0.100;2023-01-01T09:22:59;3;2;
61760;PMS5003;47664;51.660;-0.100;2023-01-01T09:25:33;7;4;
61760;PMS5003;47664;51.660;-0.100;2023-01-01T09:28:06;7;7;
61760;PMS5003;47664;51.660;-0.100;2023-01-01T09:30:39;7;3;
61760;PMS5003;47664;51.660;-0.100;2023-01-01T09:33:11;9;5;
61760;PMS5003;47664;51.660;-0.100;2023-01-01T09:35:43;7;3;
61760;PMS5003;47664;51.660;-0.100;2023-01-01T09:38:15;1;1;
61760;PMS5003;47664;51.660;-0.100;2023-01-01T09:40:51;5;4;
61760;PMS5003;47664;51.660;-0.100;2023-01-01T09:43:29;5;5;
61760;PMS5003;47664;51.660;-0.100;2023-01-01T09:46:06;8;5;
61760;PMS5003;47664;51.660;-0.100;2023-01-01T09:48:40;8;3;
61760;PMS5003;47664;51.660;-0.100;2023-01-01T09:51:17;4;3;
61760;PMS5003;47664;51.660;-0.100;2023-01-01T09:53:54;9;4;
61760;PMS5003;47664;51.660;-0.100;2023-01-01T09:56:28;4;2;
61760;PMS5003;47664;51.660;-0.100;2023-01-01T09:59:01;5;1;
61760;PMS5003;47664;51.660;-0.100;2023-01-01T10:01:36;1;1;
61760;PMS5003;47664;51.660;-0.100;2023-01-01T10:04:17;8;2;
61760;PMS5003;47664;51.660;-0.100;2023-01-01T10:07:58;5;2;
61760;PMS5003;47664;51.660;-0.100;2023-01-01T10:10:38;8;2;
61760;PMS5003;47664;51.660;-0.100;2023-01-01T10:13:17;9;3;
61760;PMS5003;47664;51.660;-0.100;2023-01-01T10:15:53;9;2;
61760;PMS5003;47664;51.660;-0.100;2023-01-01T10:18:25;3;0;
61760;PMS5003;47664;51.660;-0.100;2023-01-01T10:20:57;3;1;
61760;PMS5003;47664;51.660;-0.100;2023-01-01T10:23:37;5;2;
61760;PMS5003;47664;51.660;-0.100;2023-01-01T10:26:11;9;4;
61760;PMS5003;47664;51.660;-0.100;2023-01-01T10:28:44;4;3;
61760;PMS5003;47664;51.660;-0.100;2023-01-01T10:31:19;5;2;
61760;PMS5003;47664;51.660;-0.100;2023-01-01T10:33:54;6;4;
61760;PMS5003;47664;51.660;-0.100;2023-01-01T10:36:32;4;1;
61760;PMS5003;47664;51.660;-0.100;2023-01-01T10:39:04;10;3;
61760;PMS5003;47664;51.660;-0.100;2023-01-01T10:41:40;8;6;
61760;PMS5003;47664;51.660;-0.100;2023-01-01T10:44:13;12;2;
61760;PMS5003;47664;51.660;-0.100;2023-01-01T10:46:52;6;3;
61760;PMS5003;47664;51.660;-0.100;2023-01-01T10:49:30;8;5;
61760;PMS5003;47664;51.660;-0.100;2023-01-01T10:52:18;11;4;
61760;PMS5003;47664;51.660;-0.100;2023-01-01T10:54:56;9;4;
61760;PMS5003;47664;51.660;-0.100;2023-01-01T10:57:30;12;5;
61760;PMS5003;47664;51.660;-0.100;2023-01-01T11:00:18;10;7;
61760;PMS5003;47664;51.660;-0.100;2023-01-01T11:02:47;6;2;
61760;PMS5003;47664;51.660;-0.100;2023-01-01T11:05:36;6;5;
61760;PMS5003;47664;51.660;-0.100;2023-01-01T11:08:25;5;3;
61760;PMS5003;47664;51.660;-0.100;2023-01-01T11:10:59;6;5;
61760;PMS5003;47664;51.660;-0.100;2023-01-01T11:13:33;12;6;
61760;PMS5003;47664;51.660;-0.100;2023-01-01T11:16:08;9;5;
61760;PMS5003;47664;51.660;-0.100;2023-01-01T11:18:36;9;6;
61760;PMS5003;47664;51.660;-0.100;2023-01-01T11:21:09;11;3;
61760;PMS5003;47664;51.660;-0.100;2023-01-01T11:23:46;8;5;
61760;PMS5003;47664;51.660;-0.100;2023-01-01T11:26:35;7;2;
61760;PMS5003;47664;51.660;-0.100;2023-01-01T11:29:16;13;5;
61760;PMS5003;47664;51.660;-0.100;2023-01-01T11:31:46;9;4;
61760;PMS5003;47664;51.660;-0.100;2023-01-01T11:34:28;4;3;
61760;PMS5003;47664;51.660;-0.100;2023-01-01T11:37:06;11;5;
61760;PMS5003;47664;51.660;-0.100;2023-01-01T11:39:41;10;6;
61760;PMS5003;47664;51.660;-0.100;2023-01-01T11:42:16;6;1;
61760;PMS5003;47664;51.660;-0.100;2023-01-01T11:44:51;9;6;
61760;PMS5003;47664;51.660;-0.100;2023-01-01T11:47:27;8;3;
61760;PMS5003;47664;51.660;-0.100;2023-01-01T11:50:03;18;8;
61760;PMS5003;47664;51.660;-0.100;2023-01-01T11:52:44;3;3;
61760;PMS5003;47664;51.660;-0.100;2023-01-01T11:55:19;14;8;
61760;PMS5003;47664;51.660;-0.100;2023-01-01T11:57:55;7;1;
61760;PMS5003;47664;51.660;-0.100;2023-01-01T12:00:25;14;4;
61760;PMS5003;47664;51.660;-0.100;2023-01-01T12:03:03;5;2;
61760;PMS5003;47664;51.660;-0.100;2023-01-01T12:05:40;4;4;
61760;PMS5003;47664;51.660;-0.100;2023-01-01T12:08:14;12;6;
61760;PMS5003;47664;51.660;-0.100;2023-01-01T12:10:53;8;4;
61760;PMS5003;47664;51.660;-0.100;2023-01-01T12:13:27;6;3;
61760;PMS5003;47664;51.660;-0.100;2023-01-01T12:16:06;6;3;
61760;PMS5003;47664;51.660;-0.100;2023-01-01T12:18:39;7;6;
61760;PMS5003;47664;51.660;-0.100;2023-01-01T12:21:10;13;6;
61760;PMS5003;47664;51.660;-0.100;2023-01-01T12:23:45;6;3;
61760;PMS5003;47664;51.660;-0.100;2023-01-01T12:26:18;4;3;
61760;PMS5003;47664;51.660;-0.100;2023-01-01T12:29:01;4;3;
61760;PMS5003;47664;51.660;-0.100;2023-01-01T12:33:01;14;5;
61760;PMS5003;47664;51.660;-0.100;2023-01-01T12:35:50;6;3;
61760;PMS5003;47664;51.660;-0.100;2023-01-01T12:38:32;17;6;
61760;PMS5003;47664;51.660;-0.100;2023-01-01T12:41:12;10;5;
61760;PMS5003;47664;51.660;-0.100;2023-01-01T12:43:54;7;3;
61760;PMS5003;47664;51.660;-0.100;2023-01-01T12:46:35;12;8;
61760;PMS5003;47664;51.660;-0.100;2023-01-01T12:49:16;8;4;
61760;PMS5003;47664;51.660;-0.100;2023-01-01T12:51:59;13;5;
61760;PMS5003;47664;51.660;-0.100;2023-01-01T12:54:37;8;2;
61760;PMS5003;47664;51.660;-0.100;2023-01-01T12:57:21;9;4;
61760;PMS5003;47664;51.660;-0.100;2023-01-01T12:59:54;11;3;
61760;PMS5003;47664;51.660;-0.100;2023-01-01T13:02:27;15;9;
61760;PMS5003;47664;51.660;-0.100;2023-01-01T13:05:03;11;5;
61760;PMS5003;47664;51.660;-0.100;2023-01-01T13:07:39;9;6;
61760;PMS5003;47664;51.660;-0.100;2023-01-01T13:10:15;10;4;
61760;PMS5003;47664;51.660;-0.100;2023-01-01T13:12:50;10;10;
61760;PMS5003;47664;51.660;-0.100;2023-01-01T13:15:45;10;5;
61760;PMS5003;47664;51.660;-0.100;2023-01-01T13:18:24;7;4;
61760;PMS5003;47664;51.660;-0.100;2023-01-01T13:20:55;6;4;
61760;PMS5003;47664;51.660;-0.100;2023-01-01T13:23:46;6;3;
61760;PMS5003;47664;51.660;-0.100;2023-01-01T13:26:48;5;3;
61760;PMS5003;47664;51.660;-0.100;2023-01-01T13:29:32;12;8;
61760;PMS5003;47664;51.660;-0.100;2023-01-01T13:32:08;10;6;
61760;PMS5003;47664;51.660;-0.100;2023-01-01T13:35:01;11;6;
61760;PMS5003;47664;51.660;-0.100;2023-01-01T13:37:29;7;1;
61760;PMS5003;47664;51.660;-0.100;2023-01-01T13:40:27;8;4;
61760;PMS5003;47664;51.660;-0.100;2023-01-01T13:43:18;5;2;
61760;PMS5003;47664;51.660;-0.100;2023-01-01T13:45:52;9;5;
61760;PMS5003;47664;51.660;-0.100;2023-01-01T13:48:29;6;3;
61760;PMS5003;47664;51.660;-0.100;2023-01-01T13:51:34;7;4;
61760;PMS5003;47664;51.660;-0.100;2023-01-01T13:56:26;4;3;
61760;PMS5003;47664;51.660;-0.100;2023-01-01T13:59:08;11;5;
61760;PMS5003;47664;51.660;-0.100;2023-01-01T14:01:51;11;8;
61760;PMS5003;47664;51.660;-0.100;2023-01-01T14:04:28;9;6;
61760;PMS5003;47664;51.660;-0.100;2023-01-01T14:07:03;6;4;
61760;PMS5003;47664;51.660;-0.100;2023-01-01T14:09:36;7;4;
61760;PMS5003;47664;51.660;-0.100;2023-01-01T14:12:09;9;3;
61760;PMS5003;47664;51.660;-0.100;2023-01-01T14:14:47;10;4;
61760;PMS5003;47664;51.660;-0.100;2023-01-01T14:17:15;3;3;
61760;PMS5003;47664;51.660;-0.100;2023-01-01T14:19:49;9;6;
61760;PMS5003;47664;51.660;-0.100;2023-01-01T14:22:22;6;5;
61760;PMS5003;47664;51.660;-0.100;2023-01-01T14:24:54;13;6;
61760;PMS5003;47664;51.660;-0.100;2023-01-01T14:27:27;10;4;
61760;PMS5003;47664;51.660;-0.100;2023-01-01T14:29:59;8;3;
61760;PMS5003;47664;51.660;-0.100;2023-01-01T14:32:32;11;4;
61760;PMS5003;47664;51.660;-0.100;2023-01-01T14:35:12;10;3;
61760;PMS5003;47664;51.660;-0.100;2023-01-01T14:37:41;8;5;
61760;PMS5003;47664;51.660;-0.100;2023-01-01T14:40:15;15;6;
61760;PMS5003;47664;51.660;-0.100;2023-01-01T14:42:49;6;3;
61760;PMS5003;47664;51.660;-0.100;2023-01-01T14:45:21;7;4;
61760;PMS5003;47664;51.660;-0.100;2023-01-01T14:47:55;4;4;
61760;PMS5003;47664;51.660;-0.100;2023-01-01T14:50:29;10;4;
61760;PMS5003;47664;51.660;-0.100;2023-01-01T14:53:03;13;3;
61760;PMS5003;47664;51.660;-0.100;2023-01-01T14:55:40;11;5;
61760;PMS5003;47664;51.660;-0.100;2023-01-01T14:58:15;9;8;
61760;PMS5003;47664;51.660;-0.100;2023-01-01T15:00:51;7;4;
61760;PMS5003;47664;51.660;-0.100;2023-01-01T15:03:39;10;6;
61760;PMS5003;47664;51.660;-0.100;2023-01-01T15:06:28;13;8;
61760;PMS5003;47664;51.660;-0.100;2023-01-01T15:09:05;9;4;
61760;PMS5003;47664;51.660;-0.100;2023-01-01T15:11:40;9;5;
61760;PMS5003;47664;51.660;-0.100;2023-01-01T15:14:26;7;5;
61760;PMS5003;47664;51.660;-0.100;2023-01-01T15:17:03;3;3;
61760;PMS5003;47664;51.660;-0.100;2023-01-01T15:19:32;7;5;
61760;PMS5003;47664;51.660;-0.100;2023-01-01T15:22:08;13;7;
61760;PMS5003;47664;51.660;-0.100;2023-01-01T15:24:47;7;2;
61760;PMS5003;47664;51.660;-0.100;2023-01-01T15:27:21;16;8;
61760;PMS5003;47664;51.660;-0.100;2023-01-01T15:29:56;15;4;
61760;PMS5003;47664;51.660;-0.100;2023-01-01T15:32:31;15;4;
61760;PMS5003;47664;51.660;-0.100;2023-01-01T15:35:04;7;5;
61760;PMS5003;47664;51.660;-0.100;2023-01-01T15:37:46;5;4;
61760;PMS5003;47664;51.660;-0.100;2023-01-01T15:40:30;16;6;
61760;PMS5003;47664;51.660;-0.100;2023-01-01T15:43:19;10;4;
61760;PMS5003;47664;51.660;-0.100;2023-01-01T15:45:52;6;6;
61760;PMS5003;47664;51.660;-0.100;2023-01-01T15:48:23;6;3;
61760;PMS5003;47664;51.660;-0.100;2023-01-01T15:50:58;5;5;
61760;PMS5003;47664;51.660;-0.100;2023-01-01T15:53:30;8;5;
61760;PMS5003;47664;51.660;-0.100;2023-01-01T15:56:11;7;2;
61760;PMS5003;47664;51.660;-0.100;2023-01-01T15:58:46;6;2;
61760;PMS5003;47664;51.660;-0.100;2023-01-01T16:01:22;15;9;
61760;PMS5003;47664;51.660;-0.100;2023-01-01T16:03:59;5;3;
61760;PMS5003;47664;51.660;-0.100;2023-01-01T16:06:32;11;5;
61760;PMS5003;47664;51.660;-0.100;2023-01-01T16:09:08;11;5;
61760;PMS5003;47664;51.660;-0.100;2023-01-01T16:11:37;6;2;
61760;PMS5003;47664;51.660;-0.100;2023-01-01T16:14:10;11;4;
61760;PMS5003;47664;51.660;-0.100;2023-01-01T16:16:49;15;10;
61760;PMS5003;47664;51.660;-0.100;2023-01-01T16:19:19;11;9;
61760;PMS5003;47664;51.660;-0.100;2023-01-01T16:21:52;7;5;
61760;PMS5003;47664;51.660;-0.100;2023-01-01T16:24:24;14;7;
61760;PMS5003;47664;51.660;-0.100;2023-01-01T16:26:58;5;5;
61760;PMS5003;47664;51.660;-0.100;2023-01-01T16:29:30;11;6;
61760;PMS5003;47664;51.660;-0.100;2023-01-01T16:32:03;5;5;
61760;PMS5003;47664;51.660;-0.100;2023-01-01T16:34:40;9;4;
61760;PMS5003;47664;51.660;-0.100;2023-01-01T16:37:13;11;6;
61760;PMS5003;47664;51.660;-0.100;2023-01-01T16:39:45;8;7;
61760;PMS5003;47664;51.660;-0.100;2023-01-01T16:42:17;11;4;
61760;PMS5003;47664;51.660;-0.100;2023-01-01T16:44:50;9;4;
61760;PMS5003;47664;51.660;-0.100;2023-01-01T16:47:22;13;4;
61760;PMS5003;47664;51.660;-0.100;2023-01-01T16:49:54;8;4;
61760;PMS5003;47664;51.660;-0.100;2023-01-01T16:52:26;7;4;
61760;PMS5003;47664;51.660;-0.100;2023-01-01T16:54:58;9;5;
61760;PMS5003;47664;51.660;-0.100;2023-01-01T16:57:31;9;7;
61760;PMS5003;47664;51.660;-0.100;2023-01-01T17:00:03;13;7;
61760;PMS5003;47664;51.660;-0.100;2023-01-01T17:02:36;15;9;
61760;PMS5003;47664;51.660;-0.100;2023-01-01T17:05:08;5;4;
61760;PMS5003;47664;51.660;-0.100;2023-01-01T17:07:41;10;4;
61760;PMS5003;47664;51.660;-0.100;2023-01-01T17:10:13;13;4;
61760;PMS5003;47664;51.660;-0.100;2023-01-01T17:12:45;10;9;
61760;PMS5003;47664;51.660;-0.100;2023-01-01T17:15:17;12;11;
61760;PMS5003;47664;51.660;-0.100;2023-01-01T17:17:49;9;6;
61760;PMS5003;47664;51.660;-0.100;2023-01-01T17:20:22;16;7;
61760;PMS5003;47664;51.660;-0.100;2023-01-01T17:22:55;5;2;